Time;durP1;ratioP1;P1;durP2;ratioP2;P2;SDS_P1;SDS_P2;PMS_P1;PMS_P2;Temp;Humidity;BMP_temperature;BMP_pressure;BME280_temperature;BME280_humidity;BME280_pressure;Samples;Min_cycle;Max_cycle;Signal;HPM_P1;HPM_P2
2022/03/03 00:02:43;;;;;;;14.70;7.97;;;0.00;97.20;;;;;;21068134;28;20093;-55
2022/03/03 00:12:46;;;;;;;15.85;8.20;;;0.20;96.20;;;;;;21069130;28;20040;-53
2022/03/03 00:22:50;;;;;;;15.60;7.32;;;0.10;97.10;;;;;;21066541;28;20048;-56
2022/03/03 00:32:53;;;;;;;13.63;7.07;;;0.20;97.00;;;;;;21066475;28;20089;-52
2022/03/03 00:42:55;;;;;;;11.10;5.90;;;0.20;97.00;;;;;;21065459;28;20039;-51
2022/03/03 00:52:58;;;;;;;12.90;6.82;;;0.20;96.70;;;;;;21065055;28;20109;-57
2022/03/03 01:03:01;;;;;;;15.80;8.40;;;0.20;96.50;;;;;;21064262;28;20070;-54
2022/03/03 01:13:03;;;;;;;20.40;7.78;;;0.30;95.30;;;;;;21064089;28;20032;-52
2022/03/03 01:23:06;;;;;;;14.13;7.70;;;0.20;96.60;;;;;;21066256;28;20063;-57
2022/03/03 01:33:08;;;;;;;11.48;5.70;;;0.20;96.00;;;;;;21064009;28;20058;-56
2022/03/03 01:43:11;;;;;;;13.68;6.30;;;0.10;97.20;;;;;;21079875;28;20032;-56
2022/03/03 01:53:14;;;;;;;10.50;6.15;;;0.20;95.30;;;;;;21079048;28;20044;-55
2022/03/03 02:03:17;;;;;;;15.35;7.25;;;0.50;95.10;;;;;;21077839;28;20376;-56
2022/03/03 02:13:20;;;;;;;13.82;7.07;;;0.30;93.90;;;;;;21077199;28;20032;-56
2022/03/03 02:23:22;;;;;;;11.70;6.43;;;0.30;95.40;;;;;;21077439;28;20040;-54
2022/03/03 02:33:25;;;;;;;12.65;6.70;;;0.20;96.60;;;;;;21076928;28;20086;-53
2022/03/03 02:43:27;;;;;;;12.23;6.57;;;0.10;96.30;;;;;;21074749;28;20380;-56
2022/03/03 02:53:31;;;;;;;12.57;6.75;;;0.00;96.50;;;;;;21073832;28;20040;-56
2022/03/03 03:03:33;;;;;;;12.65;6.30;;;0.00;96.70;;;;;;21073364;28;20040;-55
2022/03/03 03:13:36;;;;;;;13.63;7.05;;;0.00;96.90;;;;;;21072150;28;20081;-54
2022/03/03 03:23:38;;;;;;;14.25;6.00;;;-0.30;96.60;;;;;;21073029;28;20036;-56
2022/03/03 03:33:41;;;;;;;13.80;6.90;;;-0.80;97.10;;;;;;21071392;28;20121;-55
2022/03/03 03:43:43;;;;;;;17.27;8.07;;;-1.10;98.00;;;;;;21070104;28;20081;-55
2022/03/03 03:53:47;;;;;;;16.70;6.88;;;-1.40;97.90;;;;;;21069242;28;20056;-54
2022/03/03 04:03:49;;;;;;;13.48;6.50;;;-1.70;97.50;;;;;;21067700;28;20340;-56
2022/03/03 04:13:52;;;;;;;12.15;6.13;;;-1.70;97.70;;;;;;21068164;28;20476;-53
2022/03/03 04:23:55;;;;;;;11.57;4.72;;;-1.80;97.40;;;;;;21052319;28;20040;-53
2022/03/03 04:33:57;;;;;;;9.80;4.95;;;-1.80;96.20;;;;;;21067830;28;20189;-53
2022/03/03 04:43:59;;;;;;;10.50;5.18;;;-1.40;96.30;;;;;;21065931;28;20113;-54
2022/03/03 04:54:07;;;;;;;9.27;4.57;;;-1.20;96.10;;;;;;21065905;28;20044;-51
2022/03/03 05:04:09;;;;;;;10.45;4.90;;;-1.00;96.30;;;;;;21064316;28;20805;-56
2022/03/03 05:14:12;;;;;;;10.35;4.75;;;-0.80;95.90;;;;;;21065507;28;20553;-53
2022/03/03 05:24:15;;;;;;;7.47;4.18;;;-0.70;94.50;;;;;;21063774;28;20040;-53
2022/03/03 05:34:17;;;;;;;8.63;4.47;;;-0.50;94.30;;;;;;21013487;28;20549;-52
2022/03/03 05:44:19;;;;;;;8.82;4.07;;;-0.40;94.70;;;;;;21053041;28;20081;-55
2022/03/03 05:54:23;;;;;;;13.95;3.72;;;-0.50;94.00;;;;;;21062200;28;20401;-54
2022/03/03 06:04:30;;;;;;;10.40;4.55;;;-0.80;94.90;;;;;;21062724;28;20070;-56
2022/03/03 06:14:55;;;;;;;9.18;4.80;;;-1.30;95.40;;;;;;21062613;28;20036;-51
2022/03/03 06:24:57;;;;;;;10.95;4.72;;;-1.70;97.00;;;;;;21071508;28;20089;-54
2022/03/03 06:35:00;;;;;;;10.10;5.53;;;-1.70;96.20;;;;;;21077045;28;20028;-56
2022/03/03 06:45:03;;;;;;;13.27;6.70;;;-1.70;97.40;;;;;;21075157;28;20036;-57
2022/03/03 06:55:08;;;;;;;16.10;8.00;;;-1.60;98.00;;;;;;21075770;28;20113;-53
2022/03/03 07:05:12;;;;;;;15.40;7.30;;;-1.40;98.50;;;;;;21074189;28;20085;-51
2022/03/03 07:15:15;;;;;;;16.02;8.15;;;-1.30;97.70;;;;;;21074458;28;20112;-55
2022/03/03 07:25:20;;;;;;;19.60;9.15;;;-1.10;97.70;;;;;;21071505;28;20039;-53
2022/03/03 07:35:27;;;;;;;19.50;8.48;;;-0.40;97.20;;;;;;21052494;28;20492;-57
2022/03/03 07:45:30;;;;;;;21.00;10.70;;;0.50;95.70;;;;;;21069582;28;20028;-53
2022/03/03 07:55:38;;;;;;;20.30;10.93;;;1.70;95.20;;;;;;21069002;28;20044;-56
2022/03/03 08:05:43;;;;;;;18.88;9.77;;;2.90;92.20;;;;;;21068436;28;20077;-56
2022/03/03 08:15:46;;;;;;;18.77;10.88;;;3.60;91.50;;;;;;21068517;28;20040;-58
2022/03/03 08:25:49;;;;;;;20.92;10.77;;;4.60;91.10;;;;;;21067133;28;20112;-57
2022/03/03 08:35:58;;;;;;;17.88;9.98;;;5.10;87.90;;;;;;21066715;28;20450;-58
2022/03/03 08:46:04;;;;;;;21.77;10.43;;;5.90;86.50;;;;;;21065599;28;20044;-54
2022/03/03 08:56:08;;;;;;;16.15;9.30;;;6.50;83.00;;;;;;21048939;28;20064;-58
2022/03/03 09:06:18;;;;;;;19.92;10.63;;;6.80;81.70;;;;;;21064224;28;20035;-59
2022/03/03 09:16:21;;;;;;;19.15;9.93;;;7.10;80.70;;;;;;21064530;28;20035;-57
2022/03/03 09:26:24;;;;;;;19.13;10.85;;;7.30;80.50;;;;;;21063575;28;20032;-55
2022/03/03 09:36:26;;;;;;;23.92;11.60;;;7.60;79.70;;;;;;21063403;28;20065;-55
2022/03/03 09:46:29;;;;;;;21.33;11.80;;;8.00;80.00;;;;;;21062596;28;20133;-56
2022/03/03 09:56:33;;;;;;;21.42;12.35;;;8.30;78.60;;;;;;21067660;28;20193;-59
2022/03/03 10:06:42;;;;;;;29.52;13.23;;;8.40;78.70;;;;;;21079526;28;20105;-57
2022/03/03 10:16:48;;;;;;;23.67;12.35;;;8.20;78.00;;;;;;21078868;28;20090;-56
2022/03/03 10:27:06;;;;;;;24.88;12.48;;;8.60;80.30;;;;;;21078039;28;20036;-56
2022/03/03 10:37:10;;;;;;;21.48;12.70;;;8.90;79.00;;;;;;21076528;28;20089;-58
2022/03/03 10:47:21;;;;;;;23.10;12.75;;;9.10;78.30;;;;;;21076731;28;20036;-58
2022/03/03 10:57:42;;;;;;;22.05;12.77;;;9.30;77.20;;;;;;20992004;28;20060;-59
2022/03/03 11:07:47;;;;;;;25.23;14.50;;;9.30;76.80;;;;;;20989947;28;20074;-60
2022/03/03 11:17:51;;;;;;;21.60;12.63;;;9.30;78.60;;;;;;21068575;28;20036;-59
2022/03/03 11:28:07;;;;;;;28.48;15.77;;;9.30;79.50;;;;;;21072428;28;20040;-59
2022/03/03 11:38:10;;;;;;;23.50;14.23;;;9.60;78.30;;;;;;21071171;28;20624;-59
2022/03/03 11:48:20;;;;;;;26.55;15.80;;;9.60;78.10;;;;;;21069883;28;20044;-59
2022/03/03 11:58:37;;;;;;;34.90;19.02;;;9.70;78.20;;;;;;21068890;28;20063;-59
2022/03/03 12:08:41;;;;;;;29.88;18.38;;;9.70;79.50;;;;;;21068389;28;20032;-59
2022/03/03 12:18:47;;;;;;;33.00;19.77;;;9.50;82.10;;;;;;21066632;28;20446;-56
2022/03/03 12:28:50;;;;;;;33.97;19.33;;;9.50;82.20;;;;;;21067250;28;20032;-58
2022/03/03 12:38:54;;;;;;;32.92;19.17;;;9.80;80.50;;;;;;21066049;28;20073;-59
2022/03/03 12:48:57;;;;;;;35.92;20.23;;;9.60;83.60;;;;;;21048518;28;20032;-56
2022/03/03 12:59:07;;;;;;;36.00;20.65;;;9.80;83.60;;;;;;21065762;28;20128;-61
2022/03/03 13:09:11;;;;;;;38.50;22.45;;;9.90;81.70;;;;;;21064787;28;20040;-58
2022/03/03 13:19:14;;;;;;;38.17;22.02;;;9.60;81.50;;;;;;21063698;28;20097;-58
2022/03/03 13:29:22;;;;;;;35.00;20.40;;;9.40;82.20;;;;;;21067960;28;20032;-60
2022/03/03 13:39:26;;;;;;;33.35;19.58;;;9.30;81.90;;;;;;21080155;28;20549;-60
2022/03/03 13:49:34;;;;;;;31.88;18.70;;;9.30;80.70;;;;;;21079095;28;20043;-58
2022/03/03 13:59:53;;;;;;;33.38;18.65;;;8.60;81.00;;;;;;21060990;28;20052;-59
2022/03/03 14:10:02;;;;;;;33.33;18.43;;;7.90;81.30;;;;;;21077747;28;20028;-56
2022/03/03 14:20:05;;;;;;;33.63;20.20;;;7.20;83.90;;;;;;21076957;28;20395;-56
2022/03/03 14:30:08;;;;;;;33.80;18.92;;;6.70;88.70;;;;;;21076151;28;20093;-56
2022/03/03 14:40:12;;;;;;;34.08;19.80;;;6.20;91.10;;;;;;21076228;28;20112;-55
2022/03/03 14:50:15;;;;;;;38.58;20.88;;;5.90;91.70;;;;;;21075662;28;20048;-54
2022/03/03 15:00:19;;;;;;;35.03;19.63;;;5.50;93.10;;;;;;21074034;28;20101;-55
2022/03/03 15:10:22;;;;;;;34.88;19.95;;;5.30;93.80;;;;;;21072806;28;20099;-52
2022/03/03 15:20:26;;;;;;;36.53;19.52;;;5.00;94.60;;;;;;21072307;28;20028;-57
2022/03/03 15:30:30;;;;;;;38.35;20.30;;;4.70;95.30;;;;;;21070907;28;20035;-54
2022/03/03 15:40:32;;;;;;;36.83;18.88;;;4.40;95.80;;;;;;21070756;28;20031;-53
2022/03/03 15:50:35;;;;;;;37.00;19.27;;;4.10;96.50;;;;;;21070724;28;20044;-52
2022/03/03 16:00:37;;;;;;;37.90;20.02;;;3.70;97.00;;;;;;21068079;28;20706;-54
2022/03/03 16:10:40;;;;;;;39.85;20.27;;;2.90;98.10;;;;;;21069168;28;20102;-57
2022/03/03 16:20:51;;;;;;;40.27;19.93;;;2.30;99.10;;;;;;21139380;27;20406;-53
2022/03/03 16:30:54;;;;;;;36.42;19.77;;;1.80;99.90;;;;;;21136349;28;20032;-54
2022/03/03 16:40:56;;;;;;;36.65;19.15;;;1.30;99.90;;;;;;21135433;28;20036;-56
2022/03/03 16:50:59;;;;;;;40.83;19.95;;;0.90;99.90;;;;;;21135103;28;20028;-53
2022/03/03 17:01:02;;;;;;;38.90;18.80;;;0.50;99.90;;;;;;21134698;28;20093;-55
2022/03/03 17:11:04;;;;;;;43.78;21.58;;;0.20;99.90;;;;;;21132786;28;20031;-56
2022/03/03 17:21:08;;;;;;;40.38;21.33;;;-0.20;99.90;;;;;;21133463;28;20089;-52
2022/03/03 17:31:10;;;;;;;42.03;21.40;;;-0.50;99.90;;;;;;21064383;28;20036;-54
2022/03/03 17:41:13;;;;;;;41.13;21.77;;;-0.60;99.90;;;;;;21075371;28;20101;-57
2022/03/03 17:51:18;;;;;;;47.35;21.73;;;-0.90;99.90;;;;;;21074527;28;20097;-56
2022/03/03 18:01:21;;;;;;;41.85;23.15;;;-1.10;99.90;;;;;;21057224;28;20093;-53
2022/03/03 18:11:23;;;;;;;38.65;19.27;;;-1.20;99.90;;;;;;21072362;28;20073;-55
2022/03/03 18:21:27;;;;;;;35.63;18.30;;;-1.30;99.90;;;;;;21071817;28;20811;-54
2022/03/03 18:31:29;;;;;;;38.95;19.38;;;-1.20;99.90;;;;;;21072318;28;20036;-53
2022/03/03 18:41:35;;;;;;;33.42;16.02;;;-1.10;99.90;;;;;;21069908;28;20442;-53
2022/03/03 18:51:39;;;;;;;28.30;14.75;;;-1.10;99.90;;;;;;21053090;28;20065;-52
2022/03/03 19:01:42;;;;;;;27.15;14.60;;;-1.00;99.90;;;;;;21069252;28;20425;-54
2022/03/03 19:11:46;;;;;;;27.50;13.80;;;-1.00;99.90;;;;;;21022260;28;20048;-53
2022/03/03 19:21:50;;;;;;;34.92;17.38;;;-1.00;99.90;;;;;;20983514;28;20040;-56
2022/03/03 19:42:13;;;;;;;35.03;17.65;;;-1.30;99.90;;;;;;20982288;28;20040;-54
2022/03/03 19:52:16;;;;;;;40.30;19.45;;;-1.40;99.90;;;;;;20992888;28;20508;-65
2022/03/03 20:02:19;;;;;;;45.97;23.45;;;-1.50;99.90;;;;;;21048284;28;20028;-52
2022/03/03 20:12:21;;;;;;;49.70;23.80;;;-1.60;99.90;;;;;;21063985;28;20048;-52
2022/03/03 20:22:27;;;;;;;47.15;24.58;;;-1.80;99.90;;;;;;21062931;28;20168;-54
2022/03/03 20:32:30;;;;;;;56.20;27.20;;;-1.90;99.90;;;;;;21062265;28;20070;-52
2022/03/03 20:42:33;;;;;;;52.05;26.00;;;-2.00;99.90;;;;;;21061886;28;20036;-57
2022/03/03 20:52:35;;;;;;;60.20;28.80;;;-1.90;99.90;;;;;;21044584;28;20476;-56
2022/03/03 21:02:38;;;;;;;68.00;31.63;;;-1.90;99.90;;;;;;21069076;28;20040;-57
2022/03/03 21:12:44;;;;;;;65.68;32.20;;;-2.00;99.90;;;;;;21077364;28;20442;-64
2022/03/03 21:22:48;;;;;;;61.40;29.55;;;-1.90;99.90;;;;;;21076416;28;20036;-52
2022/03/03 21:32:51;;;;;;;67.10;30.55;;;-1.90;99.90;;;;;;21075811;28;20036;-57
2022/03/03 21:42:53;;;;;;;62.25;29.38;;;-1.80;99.90;;;;;;21074388;28;20421;-53
2022/03/03 21:52:58;;;;;;;58.80;30.05;;;-1.50;99.90;;;;;;21073862;28;20501;-57
2022/03/03 22:03:00;;;;;;;55.28;27.88;;;-1.30;99.90;;;;;;21073565;28;20036;-55
2022/03/03 22:13:03;;;;;;;59.70;28.58;;;-1.20;99.90;;;;;;21073028;28;20098;-56
2022/03/03 22:23:08;;;;;;;58.75;27.58;;;-1.30;99.90;;;;;;21073680;28;20085;-53
2022/03/03 22:33:10;;;;;;;63.63;30.70;;;-1.40;99.90;;;;;;21071400;28;20109;-56
2022/03/03 22:43:13;;;;;;;53.65;27.83;;;-1.50;99.90;;;;;;21071358;28;20040;-56
2022/03/03 22:53:15;;;;;;;60.28;29.80;;;-1.60;99.90;;;;;;21069864;28;20092;-54
2022/03/03 23:13:39;;;;;;;61.67;31.92;;;-1.40;99.90;;;;;;21067505;28;20458;-56
2022/03/03 23:23:44;;;;;;;61.45;29.50;;;-1.20;99.90;;;;;;21067290;28;20036;-55
2022/03/03 23:33:48;;;;;;;66.43;30.75;;;-1.20;99.90;;;;;;21066795;28;20036;-56
2022/03/03 23:43:51;;;;;;;66.18;32.63;;;-1.30;99.90;;;;;;21065464;28;20093;-55
2022/03/03 23:53:56;;;;;;;68.60;31.67;;;-1.40;99.90;;;;;;21048519;28;20236;-55
